Main page
METAR-TAF:

METAR-TAF

Airports :

Menorca Airport

Minorca, Spain

latitude: 39-52N, longitude: 004-14E, elevation: 87 m

Current weather observation

The report was made 48 minutes ago, at 05:00 UTC
Wind 4 kt from the West
Temperature 13°C
Humidity 94%
Pressure 1009 hPa
Visibility 10 km or more
Few clouds at a height of 1500 ft

METAR: LEMH 080500Z 26004KT 9999 FEW015 13/12 Q1009

Time: 06:48 (05:48 UTC)

Forecast

The report was made 3 hours and 48 minutes ago, at 02:00 UTC
Forecast valid from 08 at 03 UTC to 09 at 03 UTC
Wind 5 kt from the South
Visibility 10 km or more
Few clouds at a height of 1500 ft
Becoming
from 08 at 10 UTC to 08 at 13 UTC
Wind 12 kt from the South/Southwest

TAF: LEMH 080200Z 0803/0903 18005KT 9999 FEW015 TX18/0812Z TN09/0807Z BECMG 0810/0813 21012KT

Weather observations and forecasts of more than 4000 airports (METAR and TAF reports).

The available stations are represented by yellow and red dots on the map.

Hover mouse over dot to see the name of the station.

Then click to see weather observations and forecasts.

To change the map : click on the green buttons with a black cross to zoom in, on the green button with a dash to zoom out, or on the green arrows for adjacent maps.


METAR-TAF: